This is the latest recevied weather packets stored in our database for station/object KB2EAR-13. If no packets are shown the sender has not sent any weather packets the latest 1 day(s).
| Time | Temp. | Humidity | Pressure | Rain* | Wind** | Luminosity | Snow |
|---|---|---|---|---|---|---|---|
| 1778013017 | 28.33° C | 35% | 1008.5 hPa | 0 mm | 1.79 m/s, 270° | - | - |
| 1778012717 | 28.33° C | 35% | 1008.6 hPa | 0 mm | 1.79 m/s, 315° | - | - |
| 1778012417 | 28.33° C | 34% | 1008.7 hPa | 0 mm | 2.68 m/s, 270° | - | - |
| 1778012363 | 28.33° C | 35% | 1008.7 hPa | 0 mm | 2.68 m/s, 270° | - | - |
| 1778012363 | 28.33° C | 35% | 1008.7 hPa | 0 mm | 2.24 m/s, 270° | - | - |
| 1778012117 | 28.33° C | 35% | 1008.7 hPa | 0 mm | 2.68 m/s, 270° | - | - |
| 1778011817 | 28.33° C | 35% | 1008.7 hPa | 0 mm | 2.24 m/s, 270° | - | - |
| 1778011517 | 28.33° C | 35% | 1008.8 hPa | 0 mm | 1.79 m/s, 293° | - | - |
| 1778011217 | 27.78° C | 35% | 1009 hPa | 0 mm | 4.02 m/s, 248° | - | - |
| 1778010917 | 27.78° C | 35% | 1009 hPa | 0 mm | 3.13 m/s, 248° | - | - |
| 1778010617 | 27.78° C | 34% | 1008.9 hPa | 0 mm | 4.47 m/s, 248° | - | - |
| 1778010317 | 27.78° C | 35% | 1009 hPa | 0 mm | 2.68 m/s, 270° | - | - |
| 1778010017 | 28.33° C | 36% | 1009.1 hPa | 0 mm | 3.58 m/s, 248° | - | - |
| 1778009717 | 28.33° C | 36% | 1009.1 hPa | 0 mm | 2.68 m/s, 248° | - | - |
| 1778009417 | 28.33° C | 36% | 1009.1 hPa | 0 mm | 2.68 m/s, 270° | - | - |
| 1778009117 | 28.33° C | 36% | 1009.4 hPa | 0 mm | 2.68 m/s, 270° | - | - |
| 1778008817 | 28.33° C | 36% | 1009.3 hPa | 0 mm | 2.68 m/s, 270° | - | - |
| 1778008517 | 28.33° C | 39% | 1009.3 hPa | 0 mm | 1.79 m/s, 270° | - | - |
| 1778008217 | 28.33° C | 38% | 1009.4 hPa | 0 mm | 2.68 m/s, 270° | - | - |
| 1778007917 | 28.33° C | 36% | 1009.6 hPa | 0 mm | 2.68 m/s, 293° | - | - |
| 1778007617 | 28.33° C | 37% | 1009.5 hPa | 0 mm | 1.34 m/s, 293° | - | - |
| 1778007317 | 28.33° C | 38% | 1009.5 hPa | 0 mm | 2.24 m/s, 270° | - | - |
| 1778007017 | 28.33° C | 38% | 1009.6 hPa | 0 mm | 1.79 m/s, 248° | - | - |
| 1778006717 | 27.78° C | 39% | 1009.7 hPa | 0 mm | 2.68 m/s, 248° | - | - |
| 1778006417 | 27.78° C | 39% | 1010 hPa | 0 mm | 2.68 m/s, 270° | - | - |
* Rain latest hour (hover to see other rain measurements)
** Current wind speed in m/s (hover to see current wind gust speed)